Historique des mesures à Cassis (13260), France
Quotidien Résumé Janvier 19, 2018 Unités:  Métrique/US    US   Métrique
« Précédent (Jour)
Suivant (Jour) »
Quotidien Hebdomadaire Mensuel Annuel Période au choix
  Maximum: Minimum: Moyenne:
Température: 32 °F /  TemperatureC °C 50.7 °F /  10.4 °C 52.7 °F /  11.5 °C
Point de rosée: 32 °F /  DewpointC °C 35.8 °F /  2.1 °C 40.3 °F /  4.6 °C
Humidité: Humidity % 49 % 60 %
Vitesse du vent: WindSpeedKMH mph /  0 km/h - 11 mph /  17.7 km/h
Rafales: WindSpeedGustKMH mph /  0 km/h - -
Vent:- - WSW
Pression: 0 in /  PressurehPa hPa 29.8 in /  1009.7 hPa -
Précipitations: 0.0 in /  0 mm    
Historical Graphs
 
 
Mesures pour : Janvier 19, 2018
Heure Temperature Point de rosée Pression Vent Vitesse du vent Rafales Humidité Pluie (par heure)
32 °F /  TemperatureC °C 32 °F /  DewpointC °C 0 in /  PressurehPa hPa Calm     Humidity % HourlyPrecipMM in /  0 mm
00:12 51.6 °F /  10.9 °C 43 °F /  6.1 °C 29.9 in /  1013.1 hPa Calm   2.1 mph /  3.4 km/h 72 % 0.0 in /  0 mm
01:12 51.6 °F /  10.9 °C 43 °F /  6.1 °C 29.9 in /  1012.8 hPa WNW 9.7 mph /  15.6 km/h 12.2 mph /  19.6 km/h 72 % 0.0 in /  0 mm
02:12 52 °F /  11.1 °C 43.5 °F /  6.4 °C 29.9 in /  1012.8 hPa WNW 6.1 mph /  9.8 km/h 6.1 mph /  9.8 km/h 73 % 0.0 in /  0 mm
03:12 51.4 °F /  10.8 °C 43.5 °F /  6.4 °C 29.9 in /  1012.8 hPa Calm   5.0 mph /  8 km/h 74 % 0.0 in /  0 mm
04:12 51.1 °F /  10.6 °C 43.3 °F /  6.3 °C 29.9 in /  1012.1 hPa Calm   3.2 mph /  5.1 km/h 75 % 0.0 in /  0 mm
05:12 52.2 °F /  11.2 °C 44.4 °F /  6.9 °C 29.9 in /  1011.4 hPa NNW 10.1 mph /  16.3 km/h 10.1 mph /  16.3 km/h 75 % 0.0 in /  0 mm
06:12 51.6 °F /  10.9 °C 44.1 °F /  6.7 °C 29.9 in /  1011.1 hPa North 7.6 mph /  12.2 km/h 7.6 mph /  12.2 km/h 75 % 0.0 in /  0 mm
07:12 52.3 °F /  11.3 °C 44.2 °F /  6.8 °C 29.8 in /  1010.7 hPa NNE 7.2 mph /  11.6 km/h 13.7 mph /  22 km/h 74 % 0.0 in /  0 mm
08:12 52.2 °F /  11.2 °C 44.1 °F /  6.7 °C 29.9 in /  1011.1 hPa WNW 11.9 mph /  19.2 km/h 11.9 mph /  19.2 km/h 74 % 0.0 in /  0 mm
09:12 52.9 °F /  11.6 °C 44.1 °F /  6.7 °C 29.8 in /  1010.4 hPa NNW 7.6 mph /  12.2 km/h 28.8 mph /  46.3 km/h 72 % 0.0 in /  0 mm
10:12 53.2 °F /  11.8 °C 43.7 °F /  6.5 °C 29.8 in /  1010.4 hPa NNW 15.4 mph /  24.8 km/h 28.8 mph /  46.3 km/h 70 % 0.0 in /  0 mm
11:12 55.2 °F /  12.9 °C 41.5 °F /  5.3 °C 29.8 in /  1010.4 hPa WNW 39.9 mph /  64.2 km/h 39.9 mph /  64.2 km/h 60 % 0.0 in /  0 mm
12:12 56.8 °F /  13.8 °C 39.4 °F /  4.1 °C 29.8 in /  1010.0 hPa NNW 14.3 mph /  23 km/h 34.9 mph /  56.2 km/h 52 % 0.0 in /  0 mm
13:12 56.7 °F /  13.7 °C 37.8 °F /  3.2 °C 29.8 in /  1010.0 hPa WNW 38.9 mph /  62.6 km/h 38.9 mph /  62.6 km/h 49 % 0.0 in /  0 mm
14:12 57 °F /  13.9 °C 38.7 °F /  3.7 °C 29.8 in /  1009.7 hPa WNW 24.1 mph /  38.8 km/h 29.4 mph /  47.3 km/h 50 % 0.0 in /  0 mm
15:12 57.7 °F /  14.3 °C 40.3 °F /  4.6 °C 29.8 in /  1010.0 hPa North 11.9 mph /  19.2 km/h 11.9 mph /  19.2 km/h 52 % 0.0 in /  0 mm
16:12 57.7 °F /  14.3 °C 39.7 °F /  4.3 °C 29.8 in /  1010.4 hPa North 26.2 mph /  42.2 km/h 26.2 mph /  42.2 km/h 51 % 0.0 in /  0 mm
17:12 56.3 °F /  13.5 °C 37.4 °F /  3.0 °C 29.8 in /  1010.4 hPa NNW 6.1 mph /  9.8 km/h 29.9 mph /  48.1 km/h 49 % 0.0 in /  0 mm
18:12 55 °F /  12.8 °C 36.1 °F /  2.3 °C 29.9 in /  1011.4 hPa NNW 3.5 mph /  5.6 km/h 19.8 mph /  31.9 km/h 49 % 0.0 in /  0 mm
19:12 54 °F /  12.2 °C 35.8 °F /  2.1 °C 29.9 in /  1012.1 hPa NNW 5.5 mph /  8.9 km/h 11.9 mph /  19.2 km/h 50 % 0.0 in /  0 mm
20:12 52.9 °F /  11.6 °C 35.8 °F /  2.1 °C 29.9 in /  1012.8 hPa WNW 3.2 mph /  5.1 km/h 5.8 mph /  9.3 km/h 52 % 0.0 in /  0 mm
21:12 51.8 °F /  11.0 °C 36 °F /  2.2 °C 29.9 in /  1013.1 hPa NW 6.4 mph /  10.3 km/h 9.7 mph /  15.6 km/h 55 % 0.0 in /  0 mm
22:12 51.4 °F /  10.8 °C 36.7 °F /  2.6 °C 29.9 in /  1013.8 hPa NNW 9.3 mph /  15 km/h 9.3 mph /  15 km/h 57 % 0.0 in /  0 mm
23:12 50.7 °F /  10.4 °C 36.9 °F /  2.7 °C 29.9 in /  1013.8 hPa WNW 9.3 mph /  15 km/h 14.8 mph /  23.8 km/h 59 % 0.0 in /  0 mm
Observations météo à CASSIS
WU-History script by Weather Underground - 1 mb